Truth Or Consequences, New Mexico
Current Conditions -  °F | °C
As of 5:53 AM on Friday 28 Nov 2014 (Local Time) from KTCS Reporting Station
Clear Clear  
Wind Chill: 32°   Ceiling: Unl
Heat Index: 37°   Visibility: 10mi
Dew Point: 19°   Wind: 6mph
Humidity: 48%   Direction: 300°WNW
Pressure: 30.25"   Gusts: NA
Location:  33.13°N, 107.25°W
Report Text: KTCS 281253Z AUTO 30005KT 10SM CLR 03/M07 A3025 RMK AO2 SLP218 T00281072 TSNO
Loading
Personal Weather Stations






























Interactive Weather Map New forecast layout! Learn more

10-Day Weather Forecast

Advertisements
Track Severe Weather on mobile